createdAt,value
2022-09-26T07:49:48.886Z,11.60
2022-09-26T08:00:15.185Z,12.70
2022-09-26T08:10:32.247Z,13.00
2022-09-26T08:20:53.587Z,13.40
2022-09-26T08:30:59.561Z,13.70
2022-09-26T08:41:17.084Z,13.70
2022-09-26T08:51:50.194Z,13.60
2022-09-26T09:01:55.064Z,13.70
2022-09-26T09:12:22.994Z,14.40
2022-09-26T09:23:08.661Z,15.00
2022-09-26T09:33:18.564Z,15.30
2022-09-26T09:43:40.501Z,15.20
2022-09-26T09:53:55.543Z,15.20
2022-09-26T10:04:05.793Z,14.90
2022-09-26T10:14:18.087Z,15.00
2022-09-26T10:24:46.404Z,14.70
2022-09-26T10:35:23.522Z,15.20
2022-09-26T10:45:32.684Z,15.90
2022-09-26T10:56:04.905Z,15.60
2022-09-26T11:06:24.229Z,15.50
2022-09-26T11:16:34.899Z,15.30
2022-09-26T11:26:51.759Z,14.90
2022-09-26T11:37:33.457Z,15.10
2022-09-26T11:48:01.781Z,15.60
2022-09-26T11:58:25.972Z,15.60
2022-09-26T12:08:31.944Z,15.80
2022-09-26T12:18:57.849Z,16.50
2022-09-26T12:29:11.783Z,16.60
2022-09-26T12:39:40.881Z,16.70
2022-09-26T12:50:13.060Z,16.30
2022-09-26T13:00:28.284Z,15.50
2022-09-26T13:10:52.560Z,15.60
2022-09-26T13:21:03.117Z,15.70
2022-09-26T13:31:32.438Z,15.00
2022-09-26T13:41:45.840Z,14.70
2022-09-26T13:51:56.658Z,14.50
2022-09-26T14:02:21.632Z,14.80
2022-09-26T14:12:36.983Z,15.20
2022-09-26T14:22:42.868Z,15.50
2022-09-26T14:32:49.664Z,15.10
2022-09-26T14:43:16.005Z,15.20
2022-09-26T14:53:40.442Z,15.10
2022-09-26T15:03:42.841Z,14.90
2022-09-26T15:13:50.423Z,14.80
2022-09-26T15:23:52.802Z,14.60
2022-09-26T15:34:03.681Z,14.30
2022-09-26T15:44:06.439Z,14.10
2022-09-26T15:54:20.306Z,14.00
2022-09-26T16:04:31.526Z,14.00
2022-09-26T16:14:48.704Z,14.00
2022-09-26T16:24:51.622Z,13.90
2022-09-26T16:34:53.682Z,13.80
2022-09-26T16:44:59.397Z,13.70
2022-09-26T16:55:02.982Z,13.60
2022-09-26T17:05:04.363Z,13.50
2022-09-26T17:15:08.606Z,13.40
2022-09-26T17:25:15.922Z,13.40
2022-09-26T17:35:22.900Z,13.30
2022-09-26T17:45:35.403Z,13.30
2022-09-26T17:55:37.561Z,13.30
2022-09-26T18:05:41.658Z,13.10
2022-09-26T18:15:43.607Z,13.10
2022-09-26T18:25:50.242Z,13.00
2022-09-26T18:35:53.600Z,12.90
2022-09-26T18:45:55.177Z,12.90
2022-09-26T18:56:15.381Z,12.60
2022-09-26T19:06:32.544Z,12.60
2022-09-26T19:16:34.701Z,12.50
2022-09-26T19:26:43.602Z,12.40
2022-09-26T19:36:45.642Z,12.10
2022-09-26T19:46:49.463Z,12.30
2022-09-26T19:56:52.321Z,12.00
2022-09-26T20:06:54.701Z,11.80
2022-09-26T20:17:01.433Z,11.70
2022-09-26T20:27:06.144Z,11.50
2022-09-26T20:37:07.617Z,11.50
2022-09-26T20:47:09.445Z,11.30
2022-09-26T20:57:11.582Z,11.20
2022-09-26T21:07:17.720Z,11.10
2022-09-26T21:17:24.380Z,11.20
2022-09-26T21:27:26.559Z,11.10
2022-09-26T21:37:28.258Z,11.10
2022-09-26T21:47:29.982Z,10.90
2022-09-26T21:57:43.438Z,10.90
2022-09-26T22:07:46.177Z,10.90
2022-09-26T22:17:48.740Z,10.80
2022-09-26T22:27:51.043Z,10.70
2022-09-26T22:37:52.643Z,10.70
2022-09-26T22:47:54.119Z,10.80
2022-09-26T22:57:55.735Z,10.70
2022-09-26T23:07:57.398Z,10.70
2022-09-26T23:17:59.175Z,10.80
2022-09-26T23:28:01.480Z,10.70
2022-09-26T23:38:05.254Z,10.70
2022-09-26T23:48:07.560Z,10.80
2022-09-26T23:58:08.929Z,10.70
